Dornoch, United Kingdom
Current Conditions -  °F | °C
As of 8:50 PM on Wednesday 26 Nov 2014 (Local Time) from EGQK Reporting Station
Broken Clouds Broken Clouds  
Wind Chill: 39°   Ceiling: 4700
Heat Index: 39°   Visibility: 6mi
Dew Point: 36°   Wind: 0mph
Humidity: 87%   Direction: NA
Pressure: 29.83"   Gusts: NA
Location:  57.88°N, 4.03°W
Report Text: EGQK 262050Z AUTO 00000KT 9999 FEW041/// BKN047/// BKN070/// 04/02 Q1010
Loading
Personal Weather Stations






























Interactive Weather Map New forecast layout! Learn more

10-Day Weather Forecast

Advertisements
Track Severe Weather on mobile